Mid Fortune — ZGCG8 — position and weather

sailwx.info

Track history (hours):
 
Tides and Currents Weather Stations Pressure Air Temp Water Temp Dewpoint Dewpoint Depression Visibility Wind Speed Wind Dir Waves Ship Positions

Mid Fortune

Last reported at 2016-May-01 04:32 UTC. Time now 2016-May-01 09:55 UTC.
Position N 37°20' E 026°05'.

Length 147 m; draft 6.2 m.

Type: Tanker. MMSI: 319182000.

Date/timePositionNaut miles runAvg speedWind from/ knotsBaromVisibWave heightAir tempDewpointWater temp
2016-May-01 04:32N 37°20' E 026°05'1313.6
2016-May-01 03:33N 37°27' E 025°51'1312.8
2016-May-01 02:32N 37°38' E 025°42'1514.0
2016-May-01 01:30N 37°52' E 025°37'1513.8
2016-May-01 00:24N 38°07' E 025°32'1213.9
2016-Apr-30 23:33N 38°18' E 025°28'224 8.5
2016-Apr-29 21:19N 40°57' E 028°53'3 2.9
2016-Apr-29 20:11N 40°58' E 028°57'292 9.7
2016-Apr-28 14:09N 43°43' E 034°23'814.0
2016-Apr-28 13:33N 43°47' E 034°33'1313.1
2016-Apr-28 12:33N 43°51' E 034°50'2 2.0
2016-Apr-28 11:32N 43°53' E 034°52'1 0.6
2016-Apr-28 10:33N 43°53' E 034°52'1 0.8
2016-Apr-28 09:33N 43°54' E 034°52'1 0.8
2016-Apr-28 08:33N 43°55' E 034°51'1 0.9
2016-Apr-28 07:33N 43°56' E 034°51'0 0.5
2016-Apr-28 06:33N 43°56' E 034°50'3 1.6
2016-Apr-28 04:33N 43°57' E 034°55'1 1.0
2016-Apr-28 03:33N 43°58' E 034°54'1 1.0
2016-Apr-28 02:31N 43°58' E 034°52'1 1.0
2016-Apr-28 01:33N 43°59' E 034°51'1 1.1
2016-Apr-28 00:33N 43°59' E 034°50'1 1.2
2016-Apr-27 23:24N 43°60' E 034°48'1 1.3
2016-Apr-27 22:32N 44°00' E 034°47'2 1.4
2016-Apr-27 21:28N 44°01' E 034°45'1 1.5
2016-Apr-27 20:34N 44°02' E 034°44'2 1.5
2016-Apr-27 19:32N 44°03' E 034°42'2 1.6
2016-Apr-27 18:34N 44°04' E 034°44'4 4.4
2016-Apr-27 17:33N 44°05' E 034°50'8 2.5
2016-Apr-27 14:33N 44°07' E 034°60'89 6.2
2016-Apr-27 00:13N 45°03' E 036°37'4 5.6
2016-Apr-26 23:32N 45°07' E 036°38'  
2016-Apr-23 13:33N 45°07' E 036°39'3 3.0
2016-Apr-23 12:28N 45°04' E 036°39'0 0.0
2016-Apr-22 19:17N 45°04' E 036°39'0 0.0
2016-Apr-22 18:05N 45°04' E 036°39'0 0.0
2016-Apr-22 16:17N 45°04' E 036°39'0 0.0
2016-Apr-22 15:32N 45°04' E 036°39'2 1.2
2016-Apr-22 14:15N 45°05' E 036°37'2 0.2
2016-Apr-22 04:12N 45°07' E 036°39'2 3.0
2016-Apr-22 03:27N 45°05' E 036°37'2 0.2
2016-Apr-21 18:23N 45°04' E 036°39'0 0.0
2016-Apr-21 14:32N 45°04' E 036°39'0 0.0
2016-Apr-21 12:29N 45°04' E 036°39'0 0.0
2016-Apr-21 08:26N 45°04' E 036°39'0 0.0
2016-Apr-21 06:32N 45°04' E 036°39'  
Track history (hours):
 
Tides and Currents Weather Stations Pressure Air Temp Water Temp Dewpoint Dewpoint Depression Visibility Wind Speed Wind Dir Waves Ship Positions

Mid Fortune

Last reported at 2016-May-01 04:32 UTC. Time now 2016-May-01 09:55 UTC.
Position N 37°20' E 026°05'.

Length 147 m; draft 6.2 m.

Type: Tanker. MMSI: 319182000.

Date/timePositionNaut miles runAvg speedWind from/ knotsBaromVisibWave heightAir tempDewpointWater temp
2016-May-01 04:32N 37°20' E 026°05'1313.6
2016-May-01 03:33N 37°27' E 025°51'1312.8
2016-May-01 02:32N 37°38' E 025°42'1514.0
2016-May-01 01:30N 37°52' E 025°37'1513.8
2016-May-01 00:24N 38°07' E 025°32'1213.9
2016-Apr-30 23:33N 38°18' E 025°28'224 8.5
2016-Apr-29 21:19N 40°57' E 028°53'3 2.9
2016-Apr-29 20:11N 40°58' E 028°57'292 9.7
2016-Apr-28 14:09N 43°43' E 034°23'814.0
2016-Apr-28 13:33N 43°47' E 034°33'1313.1
2016-Apr-28 12:33N 43°51' E 034°50'2 2.0
2016-Apr-28 11:32N 43°53' E 034°52'1 0.6
2016-Apr-28 10:33N 43°53' E 034°52'1 0.8
2016-Apr-28 09:33N 43°54' E 034°52'1 0.8
2016-Apr-28 08:33N 43°55' E 034°51'1 0.9
2016-Apr-28 07:33N 43°56' E 034°51'0 0.5
2016-Apr-28 06:33N 43°56' E 034°50'3 1.6
2016-Apr-28 04:33N 43°57' E 034°55'1 1.0
2016-Apr-28 03:33N 43°58' E 034°54'1 1.0
2016-Apr-28 02:31N 43°58' E 034°52'1 1.0
2016-Apr-28 01:33N 43°59' E 034°51'1 1.1
2016-Apr-28 00:33N 43°59' E 034°50'1 1.2
2016-Apr-27 23:24N 43°60' E 034°48'1 1.3
2016-Apr-27 22:32N 44°00' E 034°47'2 1.4
2016-Apr-27 21:28N 44°01' E 034°45'1 1.5
2016-Apr-27 20:34N 44°02' E 034°44'2 1.5
2016-Apr-27 19:32N 44°03' E 034°42'2 1.6
2016-Apr-27 18:34N 44°04' E 034°44'4 4.4
2016-Apr-27 17:33N 44°05' E 034°50'8 2.5
2016-Apr-27 14:33N 44°07' E 034°60'89 6.2
2016-Apr-27 00:13N 45°03' E 036°37'4 5.6
2016-Apr-26 23:32N 45°07' E 036°38'  
2016-Apr-23 13:33N 45°07' E 036°39'3 3.0
2016-Apr-23 12:28N 45°04' E 036°39'0 0.0
2016-Apr-22 19:17N 45°04' E 036°39'0 0.0
2016-Apr-22 18:05N 45°04' E 036°39'0 0.0
2016-Apr-22 16:17N 45°04' E 036°39'0 0.0
2016-Apr-22 15:32N 45°04' E 036°39'2 1.2
2016-Apr-22 14:15N 45°05' E 036°37'2 0.2
2016-Apr-22 04:12N 45°07' E 036°39'2 3.0
2016-Apr-22 03:27N 45°05' E 036°37'2 0.2
2016-Apr-21 18:23N 45°04' E 036°39'0 0.0
2016-Apr-21 14:32N 45°04' E 036°39'0 0.0
2016-Apr-21 12:29N 45°04' E 036°39'0 0.0
2016-Apr-21 08:26N 45°04' E 036°39'0 0.0
2016-Apr-21 06:32N 45°04' E 036°39'  

Dump ship's entire track history